createdAt,value
2022-09-18T09:18:43.563Z,18.90
2022-09-18T09:21:25.643Z,19.10
2022-09-18T09:24:05.667Z,19.40
2022-09-18T09:27:00.174Z,19.60
2022-09-18T09:30:01.927Z,19.80
2022-09-18T09:32:47.383Z,19.90
2022-09-18T09:35:52.359Z,19.80
2022-09-18T09:38:50.685Z,19.70
2022-09-18T09:41:37.210Z,19.50
2022-09-18T09:44:22.509Z,19.30
2022-09-18T09:47:03.416Z,19.20
2022-09-18T09:49:35.217Z,19.00
2022-09-18T09:52:09.251Z,18.90
2022-09-18T09:54:37.222Z,18.90
2022-09-18T09:57:29.696Z,18.90
2022-09-18T10:00:04.981Z,18.90
2022-09-18T10:02:58.491Z,19.00
2022-09-18T10:05:49.294Z,19.20
2022-09-18T10:08:33.829Z,19.40
2022-09-18T10:11:08.662Z,19.70
2022-09-18T10:13:45.098Z,19.80
2022-09-18T10:16:48.731Z,19.80
2022-09-18T10:19:22.358Z,20.00
2022-09-18T10:21:53.682Z,20.30
2022-09-18T10:24:42.798Z,20.60
2022-09-18T10:27:13.397Z,20.80
2022-09-18T10:29:42.706Z,20.90
2022-09-18T10:32:35.640Z,20.90
2022-09-18T10:35:30.158Z,20.90
2022-09-18T10:37:59.439Z,21.00
2022-09-18T10:40:40.421Z,21.10
2022-09-18T10:46:37.121Z,21.10
2022-09-18T10:53:43.486Z,21.50
2022-09-18T10:56:27.948Z,21.90
2022-09-18T11:02:24.574Z,22.30
2022-09-18T11:05:22.679Z,22.30
2022-09-18T11:08:04.722Z,22.10
2022-09-18T11:10:38.323Z,21.90
2022-09-18T11:13:27.277Z,21.70
2022-09-18T11:19:22.049Z,21.50
2022-09-18T11:22:49.919Z,21.20
2022-09-18T11:25:40.767Z,21.00
2022-09-18T11:28:30.131Z,20.70
2022-09-18T11:31:12.330Z,20.60
2022-09-18T11:34:14.249Z,20.70
2022-09-18T11:36:52.989Z,20.80
2022-09-18T11:39:37.815Z,20.90
2022-09-18T11:42:19.794Z,21.00
2022-09-18T11:45:01.877Z,21.20
2022-09-18T11:48:18.319Z,21.20
2022-09-18T11:51:21.545Z,21.30
2022-09-18T11:58:12.563Z,20.90
2022-09-18T12:01:24.082Z,20.90
2022-09-18T12:04:51.533Z,20.80
